Latest Weather Observations for Croker Island Airport

IDD60801

Issued at 3:31 pm CST Thursday 2 April 2015 (issued every 30 minutes, with the page automatically refreshed every 10 minutes)

About weather observations | Map of weather stations | Latest weather observations for NT | Other Formats
Station Details ID: 014308 Name: CROKER ISLAND AIRPORT Lat: -11.16 Lon: 132.48 Height: 9.2 m
Data from the previous 72 hours. | See also: Recent months for locations in Northern Territory
Date/Time
CST
Temp
°C
App
Temp
°C
Dew
Point
Rel
Hum
%
Delta-T
°C
Wind Press
QNH
hPa
Press
MSL
hPa
Rain
since 9 am
mm
Dir
 
Spd
km/h
Gust
km/h
Spd
kts
Gust
kts
02/03:30pm - - - - - E 9 15 5 8 1006.5 1006.4 -
02/03:00pm - - - - - ENE 11 17 6 9 1006.7 1006.6 -
02/02:30pm - - - - - E 11 17 6 9 1007.1 1007.0 -
02/02:00pm - - - - - ENE 11 17 6 9 1007.4 1007.3 -
02/01:30pm - - - - - ENE 11 22 6 12 1007.8 1007.7 -
02/01:00pm - - - - - ENE 11 19 6 10 1008.3 1008.2 -
02/12:30pm - - - - - ENE 13 19 7 10 1008.6 1008.5 -
02/12:00pm - - - - - ENE 11 17 6 9 1009.1 1009.0 -
02/11:30am - - - - - ENE 13 19 7 10 1009.4 1009.3 -
02/11:00am - - - - - E 11 19 6 10 1010.0 1009.9 -
02/10:30am - - - - - E 13 19 7 10 1010.3 1010.2 -
02/10:00am - - - - - E 7 15 4 8 1010.4 1010.3 -
02/09:30am - - - - - ENE 7 13 4 7 1010.5 1010.4 -
02/09:00am - - - - - ENE 11 17 6 9 1010.1 1010.0 -
02/08:30am - - - - - E 7 11 4 6 1009.9 1009.8 -
02/08:00am - - - - - E 6 9 3 5 1009.8 1009.7 -
02/07:30am - - - - - ESE 4 6 2 3 1009.6 1009.5 -
02/07:00am - - - - - ESE 4 4 2 2 1009.2 1009.1 -
02/06:30am - - - - - ESE 6 6 3 3 1008.8 1008.7 -
02/06:00am - - - - - E 4 6 2 3 1008.5 1008.4 -
02/05:30am - - - - - NE 4 6 2 3 1008.3 1008.2 -
02/05:00am - - - - - ENE 4 4 2 2 1008.1 1008.0 -
02/04:30am - - - - - NE 4 6 2 3 1008.0 1007.9 -
02/04:00am - - - - - ENE 4 4 2 2 1008.2 1008.1 -
02/03:30am - - - - - ENE 4 4 2 2 1008.3 1008.2 -
02/03:00am - - - - - ENE 4 6 2 3 1008.6 1008.5 -
02/02:30am - - - - - E 4 6 2 3 1008.8 1008.7 -
02/02:00am - - - - - ESE 6 7 3 4 1009.0 1008.9 -
02/01:30am - - - - - SE 6 7 3 4 1009.4 1009.3 -
02/01:00am - - - - - E 4 6 2 3 1009.8 1009.7 -
02/12:30am - - - - - ENE 6 6 3 3 1010.2 1010.1 -
02/12:00am - - - - - ENE 6 7 3 4 1010.4 1010.3 -
 
Date/Time
CST
Temp
°C
App
Temp
°C
Dew
Point
Rel
Hum
%
Delta-T
°C
Wind Press
QNH
hPa
Press
MSL
hPa
Rain
since 9 am
mm
Dir
 
Spd
km/h
Gust
km/h
Spd
kts
Gust
kts
01/11:30pm - - - - - ENE 6 7 3 4 1010.5 1010.4 -
01/11:00pm - - - - - ENE 7 9 4 5 1010.4 1010.3 -
01/10:30pm - - - - - ENE 7 9 4 5 1010.6 1010.5 -
01/10:00pm - - - - - ENE 6 7 3 4 1010.6 1010.5 -
01/09:30pm - - - - - ENE 6 9 3 5 1010.5 1010.4 -
01/09:00pm - - - - - ENE 9 11 5 6 1010.2 1010.1 -
01/08:30pm - - - - - ENE 9 13 5 7 1009.8 1009.7 -
01/08:00pm - - - - - ENE 9 13 5 7 1009.5 1009.4 -
01/07:30pm - - - - - ENE 9 11 5 6 1009.2 1009.1 -
01/07:00pm - - - - - ENE 9 11 5 6 1009.0 1008.9 -
01/06:30pm - - - - - ENE 11 17 6 9 1008.7 1008.6 -
01/06:00pm - - - - - ENE 13 20 7 11 1008.6 1008.5 -
01/05:30pm - - - - - ENE 15 22 8 12 1008.4 1008.3 -
01/05:00pm - - - - - ENE 15 20 8 11 1008.4 1008.3 -
01/04:30pm - - - - - ENE 17 22 9 12 1008.4 1008.3 -
01/04:00pm - - - - - ENE 13 22 7 12 1008.4 1008.3 -
01/03:30pm - - - - - ENE 11 19 6 10 1008.5 1008.4 -
01/03:00pm - - - - - ENE 11 17 6 9 1008.7 1008.6 -
01/02:30pm - - - - - ENE 13 20 7 11 1009.0 1008.9 -
01/02:00pm - - - - - E 9 19 5 10 1009.4 1009.3 -
01/01:30pm - - - - - ESE 11 17 6 9 1009.7 1009.6 -
01/01:00pm - - - - - ESE 11 17 6 9 1010.2 1010.1 -
01/12:30pm - - - - - ESE 9 17 5 9 1010.9 1010.8 -
01/12:00pm - - - - - ESE 11 17 6 9 1011.0 1010.9 -
01/11:30am - - - - - ESE 11 22 6 12 1011.5 1011.4 -
01/11:00am - - - - - ESE 7 11 4 6 1011.9 1011.8 -
01/10:30am - - - - - SE 7 13 4 7 1012.2 1012.1 -
01/10:00am - - - - - E 4 9 2 5 1012.4 1012.3 -
01/09:30am - - - - - S 7 9 4 5 1012.3 1012.2 -
01/09:00am - - - - - SE 6 9 3 5 1012.3 1012.2 -
01/08:30am - - - - - ESE 4 7 2 4 1012.1 1012.0 -
01/08:00am - - - - - E 2 6 1 3 1012.0 1011.9 -
01/07:30am - - - - - CALM 0 0 0 0 1011.6 1011.5 -
01/07:00am - - - - - CALM 0 0 0 0 1011.3 1011.2 -
01/06:30am - - - - - CALM 0 0 0 0 1011.1 1011.0 -
01/06:00am - - - - - CALM 0 0 0 0 1010.8 1010.7 -
01/05:30am - - - - - CALM 0 0 0 0 1010.5 1010.4 -
01/05:00am - - - - - CALM 0 0 0 0 1010.3 1010.2 -
01/04:30am - - - - - CALM 0 0 0 0 1010.3 1010.2 -
01/04:00am - - - - - E 2 4 1 2 1010.3 1010.2 -
01/03:30am - - - - - ENE 2 2 1 1 1010.3 1010.2 -
01/03:00am - - - - - E 2 4 1 2 1010.4 1010.3 -
01/02:30am - - - - - ENE 4 4 2 2 1010.5 1010.4 -
01/02:00am - - - - - NE 6 7 3 4 1010.7 1010.6 -
01/01:30am - - - - - ENE 4 6 2 3 1010.9 1010.8 -
01/01:00am - - - - - ENE 6 6 3 3 1011.3 1011.2 -
01/12:30am - - - - - ENE 6 6 3 3 1011.6 1011.5 -
01/12:00am - - - - - ENE 7 11 4 6 1011.7 1011.6 -
 
Date/Time
CST
Temp
°C
App
Temp
°C
Dew
Point
Rel
Hum
%
Delta-T
°C
Wind Press
QNH
hPa
Press
MSL
hPa
Rain
since 9 am
mm
Dir
 
Spd
km/h
Gust
km/h
Spd
kts
Gust
kts
31/11:30pm - - - - - ENE 7 11 4 6 1011.8 1011.7 -
31/11:00pm - - - - - NE 6 7 3 4 1012.0 1011.9 -
31/10:30pm - - - - - NE 6 9 3 5 1011.9 1011.8 -
31/10:00pm - - - - - ENE 4 6 2 3 1011.8 1011.7 -
31/09:30pm - - - - - ENE 4 6 2 3 1011.4 1011.3 -
31/09:00pm - - - - - E 4 6 2 3 1011.2 1011.1 -
31/08:30pm - - - - - ENE 4 6 2 3 1011.0 1010.9 -
31/08:00pm - - - - - E 6 7 3 4 1010.7 1010.6 -
31/07:30pm - - - - - ENE 7 9 4 5 1010.4 1010.3 -
31/07:00pm - - - - - E 9 17 5 9 1010.2 1010.1 -
31/06:30pm - - - - - E 11 17 6 9 1009.8 1009.7 -
31/06:00pm - - - - - E 13 20 7 11 1009.6 1009.5 -
31/05:30pm - - - - - E 13 19 7 10 1009.6 1009.5 -
31/05:00pm - - - - - E 17 22 9 12 1009.6 1009.5 -
31/04:30pm - - - - - E 13 20 7 11 1009.5 1009.4 -
31/04:00pm - - - - - ESE 15 20 8 11 1009.5 1009.4 -
31/03:30pm - - - - - E 17 26 9 14 1009.6 1009.5 -
31/03:00pm - - - - - E 15 26 8 14 1009.7 1009.6 -
31/02:30pm - - - - - ESE 17 24 9 13 1009.9 1009.8 -
31/02:00pm - - - - - ESE 17 28 9 15 1010.2 1010.1 -
31/01:30pm - - - - - ESE 19 26 10 14 1010.7 1010.6 -
31/01:00pm - - - - - ESE 19 30 10 16 1011.2 1011.1 -
31/12:30pm - - - - - ESE 19 26 10 14 1011.7 1011.6 -
31/12:00pm - - - - - ESE 17 26 9 14 1012.1 1012.0 -
31/11:30am - - - - - E 17 22 9 12 1012.6 1012.5 -
31/11:00am - - - - - E 17 26 9 14 1012.9 1012.8 -
31/10:30am - - - - - E 17 32 9 17 1013.0 1012.9 -
31/10:00am - - - - - E 15 28 8 15 1013.2 1013.1 -
31/09:30am - - - - - ESE 17 24 9 13 1013.2 1013.1 -
31/09:00am - - - - - ESE 17 28 9 15 1013.3 1013.2 -
31/08:30am - - - - - ESE 13 20 7 11 1013.2 1013.1 -
31/08:00am - - - - - SE 11 17 6 9 1012.8 1012.7 -
31/07:30am - - - - - SE 6 9 3 5 1012.5 1012.4 -
31/07:00am - - - - - SE 7 9 4 5 1012.0 1011.9 -
31/06:30am - - - - - SE 6 11 3 6 1011.6 1011.5 -
31/06:00am - - - - - ESE 6 7 3 4 1011.3 1011.2 -
31/05:30am - - - - - ESE 7 9 4 5 1011.1 1011.0 -
31/05:00am - - - - - SE 6 9 3 5 1010.7 1010.6 -
31/04:30am - - - - - ESE 6 7 3 4 1010.5 1010.4 -
31/04:00am - - - - - ESE 6 7 3 4 1010.5 1010.4 -
31/03:30am - - - - - ESE 6 6 3 3 1010.6 1010.5 -
31/03:00am - - - - - E 6 6 3 3 1010.6 1010.5 -
31/02:30am - - - - - SE 6 7 3 4 1010.9 1010.8 -
31/02:00am - - - - - ESE 6 7 3 4 1011.3 1011.2 -
31/01:30am - - - - - E 4 4 2 2 1011.7 1011.6 -
31/01:00am - - - - - E 6 7 3 4 1012.0 1011.9 -
31/12:30am - - - - - E 9 13 5 7 1012.2 1012.1 -
31/12:00am - - - - - E 7 11 4 6 1012.8 1012.7 -
 
Date/Time
CST
Temp
°C
App
Temp
°C
Dew
Point
Rel
Hum
%
Delta-T
°C
Wind Press
QNH
hPa
Press
MSL
hPa
Rain
since 9 am
mm
Dir
 
Spd
km/h
Gust
km/h
Spd
kts
Gust
kts
30/11:30pm - - - - - E 9 13 5 7 1012.9 1012.8 -
30/11:00pm - - - - - E 7 9 4 5 1013.0 1012.9 -
30/10:30pm - - - - - E 6 7 3 4 1013.0 1012.9 -
30/10:00pm - - - - - E 4 6 2 3 1013.0 1012.9 -
30/09:30pm - - - - - ESE 4 6 2 3 1012.8 1012.7 -
30/09:00pm - - - - - ESE 6 6 3 3 1012.5 1012.4 -
30/08:30pm - - - - - ESE 6 7 3 4 1012.0 1011.9 -
30/08:00pm - - - - - ESE 6 9 3 5 1011.8 1011.7 -
30/07:30pm - - - - - E 7 9 4 5 1011.6 1011.5 -
30/07:00pm - - - - - ESE 11 17 6 9 1011.5 1011.4 -
30/06:30pm - - - - - ESE 13 20 7 11 1011.2 1011.1 -
30/06:00pm - - - - - ESE 17 24 9 13 1011.0 1010.9 -
30/05:30pm - - - - - ESE 17 24 9 13 1010.6 1010.5 -
30/05:00pm - - - - - ESE 17 28 9 15 1010.6 1010.5 -
30/04:30pm - - - - - E 20 33 11 18 1010.5 1010.4 -
30/04:00pm - - - - - E 19 28 10 15 1010.4 1010.3 -

Other Formats:

Comma delimited format used in spreadsheet applications
http://www.bom.gov.au/fwo/IDD60801/IDD60801.94108.axf

JavaScript Object Notation format (JSON) in row-major order
http://www.bom.gov.au/fwo/IDD60801/IDD60801.94108.json